Time;durP1;ratioP1;P1;durP2;ratioP2;P2;SDS_P1;SDS_P2;PMS_P1;PMS_P2;Temp;Humidity;BMP_temperature;BMP_pressure;BME280_temperature;BME280_humidity;BME280_pressure;Samples;Min_cycle;Max_cycle;Signal;HPM_P1;HPM_P2
2021/12/28 00:01:33;;;;;;;34.70;18.85;;;;;;;;;;4782342;29;20090;-73
2021/12/28 00:04:05;;;;;;;38.83;21.90;;;;;;;;;;4782482;29;20280;-73
2021/12/28 00:06:32;;;;;;;36.95;21.88;;;;;;;;;;4783833;29;20050;-73
2021/12/28 00:09:00;;;;;;;37.15;20.35;;;;;;;;;;4783874;29;20071;-73
2021/12/28 00:11:27;;;;;;;39.42;21.92;;;;;;;;;;4781012;29;20500;-73
2021/12/28 00:14:00;;;;;;;42.53;22.30;;;;;;;;;;4785354;29;20059;-73
2021/12/28 00:16:34;;;;;;;39.53;21.67;;;;;;;;;;4782659;29;20101;-73
2021/12/28 00:19:03;;;;;;;49.00;24.57;;;;;;;;;;4785084;29;20126;-73
2021/12/28 00:21:30;;;;;;;37.25;21.08;;;;;;;;;;4776712;29;20075;-73
2021/12/28 00:23:59;;;;;;;37.10;21.05;;;;;;;;;;4785320;29;20079;-73
2021/12/28 00:26:27;;;;;;;36.17;20.13;;;;;;;;;;4783546;29;20071;-73
2021/12/28 00:28:54;;;;;;;42.75;22.20;;;;;;;;;;4787956;29;20420;-73
2021/12/28 00:31:23;;;;;;;39.28;21.63;;;;;;;;;;4798315;24;20126;-73
2021/12/28 00:33:52;;;;;;;47.92;24.25;;;;;;;;;;4799641;29;20055;-72
2021/12/28 00:36:20;;;;;;;41.70;22.48;;;;;;;;;;4799706;29;20108;-73
2021/12/28 00:38:47;;;;;;;41.13;21.95;;;;;;;;;;4798764;29;20402;-73
2021/12/28 00:41:15;;;;;;;38.17;21.05;;;;;;;;;;4801872;29;20130;-73
2021/12/28 00:43:42;;;;;;;35.13;18.63;;;;;;;;;;4809541;29;20422;-73
2021/12/28 00:46:10;;;;;;;40.25;21.13;;;;;;;;;;4803902;29;20057;-72
2021/12/28 00:48:38;;;;;;;42.60;22.13;;;;;;;;;;4800965;29;20089;-72
2021/12/28 00:51:06;;;;;;;39.00;21.30;;;;;;;;;;4795985;29;20133;-72
2021/12/28 00:53:33;;;;;;;46.53;22.25;;;;;;;;;;4813997;29;20483;-72
2021/12/28 00:56:02;;;;;;;41.28;22.63;;;;;;;;;;4802588;29;20134;-72
2021/12/28 00:58:29;;;;;;;44.13;24.58;;;;;;;;;;4813566;29;20118;-72
2021/12/28 01:00:57;;;;;;;44.17;22.52;;;;;;;;;;4800697;29;20078;-72
2021/12/28 01:03:24;;;;;;;46.83;23.33;;;;;;;;;;4821718;29;20046;-72
2021/12/28 01:05:52;;;;;;;42.45;22.55;;;;;;;;;;4805736;29;20138;-72
2021/12/28 01:08:19;;;;;;;42.78;23.10;;;;;;;;;;4813899;29;20054;-72
2021/12/28 01:10:49;;;;;;;40.03;21.67;;;;;;;;;;4815913;29;20507;-72
2021/12/28 01:13:17;;;;;;;38.42;20.85;;;;;;;;;;4822466;29;20050;-72
2021/12/28 01:15:44;;;;;;;45.95;22.63;;;;;;;;;;4816342;29;20050;-72
2021/12/28 01:18:12;;;;;;;50.42;25.85;;;;;;;;;;4817345;29;20320;-72
2021/12/28 01:20:40;;;;;;;48.28;23.98;;;;;;;;;;4823891;29;20076;-72
2021/12/28 01:23:08;;;;;;;40.75;22.80;;;;;;;;;;4816198;29;20143;-72
2021/12/28 01:25:35;;;;;;;44.35;23.52;;;;;;;;;;4818177;29;20292;-72
2021/12/28 01:28:03;;;;;;;46.92;23.33;;;;;;;;;;4814966;29;20054;-72
2021/12/28 01:30:31;;;;;;;43.05;23.20;;;;;;;;;;4813538;29;20101;-72
2021/12/28 01:33:01;;;;;;;43.10;22.95;;;;;;;;;;4816767;29;20042;-72
2021/12/28 01:35:30;;;;;;;42.70;22.02;;;;;;;;;;4815905;29;20129;-72
2021/12/28 01:37:57;;;;;;;43.35;22.88;;;;;;;;;;4815387;29;20054;-72
2021/12/28 01:40:26;;;;;;;41.65;22.67;;;;;;;;;;4815588;29;20044;-72
2021/12/28 01:43:10;;;;;;;38.40;20.17;;;;;;;;;;4822715;29;20054;-72
2021/12/28 01:45:47;;;;;;;41.78;22.67;;;;;;;;;;4813016;29;20185;-72
2021/12/28 01:48:16;;;;;;;44.85;23.52;;;;;;;;;;4813200;29;20134;-72
2021/12/28 01:50:44;;;;;;;42.35;22.38;;;;;;;;;;4803162;29;20137;-72
2021/12/28 01:53:12;;;;;;;40.05;21.77;;;;;;;;;;4801731;29;20762;-72
2021/12/28 01:55:40;;;;;;;33.42;19.63;;;;;;;;;;4818248;29;20038;-72
2021/12/28 01:58:08;;;;;;;39.70;21.05;;;;;;;;;;4800647;29;20066;-72
2021/12/28 02:00:36;;;;;;;43.22;21.80;;;;;;;;;;4794134;29;20046;-72
2021/12/28 02:03:11;;;;;;;36.22;20.67;;;;;;;;;;4800897;29;20043;-72
2021/12/28 02:05:39;;;;;;;41.72;21.33;;;;;;;;;;4801083;29;20302;-72
2021/12/28 02:08:07;;;;;;;44.78;25.98;;;;;;;;;;4800721;29;20130;-72
2021/12/28 02:10:36;;;;;;;48.30;24.20;;;;;;;;;;4801246;29;20042;-72
2021/12/28 02:13:05;;;;;;;47.55;25.08;;;;;;;;;;4816222;29;20518;-72
2021/12/28 02:15:33;;;;;;;38.85;22.25;;;;;;;;;;4817129;29;20082;-72
2021/12/28 02:18:00;;;;;;;40.92;21.95;;;;;;;;;;4799107;29;20050;-72
2021/12/28 02:20:28;;;;;;;44.72;23.20;;;;;;;;;;4800791;29;20049;-71
2021/12/28 02:22:56;;;;;;;47.55;25.08;;;;;;;;;;4799606;29;20049;-72
2021/12/28 02:25:23;;;;;;;41.75;22.25;;;;;;;;;;4800102;29;20053;-72
2021/12/28 02:27:51;;;;;;;40.00;21.80;;;;;;;;;;4798152;29;20620;-72
2021/12/28 02:30:19;;;;;;;42.65;23.17;;;;;;;;;;4819574;29;20039;-72
2021/12/28 02:32:48;;;;;;;42.67;23.58;;;;;;;;;;4800062;29;20050;-72
2021/12/28 02:35:17;;;;;;;48.42;25.90;;;;;;;;;;4798425;29;20047;-72
2021/12/28 02:37:44;;;;;;;46.97;26.30;;;;;;;;;;4801503;29;20045;-72
2021/12/28 02:40:13;;;;;;;41.38;23.55;;;;;;;;;;4799250;29;20627;-72
2021/12/28 02:42:41;;;;;;;38.47;23.50;;;;;;;;;;4799261;29;20126;-72
2021/12/28 02:45:10;;;;;;;42.88;23.25;;;;;;;;;;4798487;29;20082;-71
2021/12/28 02:47:38;;;;;;;47.63;25.58;;;;;;;;;;4803792;29;20197;-72
2021/12/28 02:50:07;;;;;;;42.72;24.42;;;;;;;;;;4805222;29;20050;-72
2021/12/28 02:52:36;;;;;;;35.80;21.98;;;;;;;;;;4798902;29;20123;-72
2021/12/28 02:55:06;;;;;;;38.83;22.33;;;;;;;;;;4800023;29;20047;-72
2021/12/28 02:57:33;;;;;;;41.97;23.63;;;;;;;;;;4800156;29;20419;-72
2021/12/28 03:00:01;;;;;;;45.97;23.25;;;;;;;;;;4798819;29;20045;-72
2021/12/28 03:02:28;;;;;;;42.88;25.42;;;;;;;;;;4798971;29;20046;-72
2021/12/28 03:04:56;;;;;;;43.33;24.60;;;;;;;;;;4799630;29;20103;-72
2021/12/28 03:07:24;;;;;;;41.30;24.25;;;;;;;;;;4800974;29;20312;-72
2021/12/28 03:09:51;;;;;;;48.15;26.13;;;;;;;;;;4800169;29;20046;-72
2021/12/28 03:12:19;;;;;;;42.95;23.42;;;;;;;;;;4798648;29;20129;-72
2021/12/28 03:14:47;;;;;;;41.38;22.88;;;;;;;;;;4811613;29;20051;-72
2021/12/28 03:17:15;;;;;;;46.15;23.80;;;;;;;;;;4825108;29;20035;-72
2021/12/28 03:19:42;;;;;;;45.33;26.15;;;;;;;;;;4822864;29;20039;-72
2021/12/28 03:22:09;;;;;;;41.55;23.13;;;;;;;;;;4831447;29;20053;-72
2021/12/28 03:24:37;;;;;;;45.95;26.63;;;;;;;;;;4820931;29;20046;-72
2021/12/28 03:27:04;;;;;;;42.17;21.13;;;;;;;;;;4810733;29;20054;-72
2021/12/28 03:29:32;;;;;;;52.30;27.55;;;;;;;;;;4806237;29;20053;-72
2021/12/28 03:31:59;;;;;;;50.03;26.27;;;;;;;;;;4803318;29;20145;-72
2021/12/28 03:34:26;;;;;;;63.00;29.75;;;;;;;;;;4803434;29;20053;-72
2021/12/28 03:36:54;;;;;;;55.08;28.45;;;;;;;;;;4803479;29;20050;-72
2021/12/28 03:39:21;;;;;;;46.63;24.98;;;;;;;;;;4804247;29;20457;-72
2021/12/28 03:41:49;;;;;;;49.33;27.42;;;;;;;;;;4803491;29;20051;-72
2021/12/28 03:44:16;;;;;;;55.92;28.20;;;;;;;;;;4813604;29;20084;-72
2021/12/28 03:46:43;;;;;;;53.33;28.45;;;;;;;;;;4808125;29;20134;-72
2021/12/28 03:49:11;;;;;;;46.70;25.25;;;;;;;;;;4802413;29;20066;-72
2021/12/28 03:51:38;;;;;;;62.78;29.42;;;;;;;;;;4806218;29;20138;-72
2021/12/28 03:54:05;;;;;;;45.70;24.13;;;;;;;;;;4810343;29;20141;-72
2021/12/28 03:56:33;;;;;;;56.78;27.55;;;;;;;;;;4799168;29;20046;-72
2021/12/28 03:59:00;;;;;;;36.58;19.15;;;;;;;;;;4807301;29;20146;-71
2021/12/28 04:01:27;;;;;;;51.13;24.60;;;;;;;;;;4801429;29;20548;-72
2021/12/28 04:03:56;;;;;;;64.45;30.25;;;;;;;;;;4810967;29;20163;-72
2021/12/28 04:06:23;;;;;;;53.33;26.15;;;;;;;;;;4800924;29;20058;-72
2021/12/28 04:08:51;;;;;;;52.03;26.98;;;;;;;;;;4795868;29;20555;-72
2021/12/28 04:13:49;;;;;;;48.47;25.13;;;;;;;;;;4806088;29;20129;-71
2021/12/28 04:16:17;;;;;;;53.83;26.90;;;;;;;;;;4810422;29;20149;-72
2021/12/28 04:18:44;;;;;;;57.50;28.02;;;;;;;;;;4813241;29;20060;-72
2021/12/28 04:21:12;;;;;;;55.03;24.45;;;;;;;;;;4806849;29;20065;-72
2021/12/28 04:23:40;;;;;;;48.65;24.17;;;;;;;;;;4798814;29;20047;-72
2021/12/28 04:26:08;;;;;;;51.63;24.95;;;;;;;;;;4802449;29;20158;-72
2021/12/28 04:28:36;;;;;;;54.35;27.08;;;;;;;;;;4801097;29;20478;-72
2021/12/28 04:31:04;;;;;;;54.63;25.75;;;;;;;;;;4805151;29;20050;-72
2021/12/28 04:33:31;;;;;;;60.08;28.85;;;;;;;;;;4803149;29;20448;-72
2021/12/28 04:35:59;;;;;;;43.95;24.45;;;;;;;;;;4801488;29;20137;-71
2021/12/28 04:38:27;;;;;;;63.65;29.85;;;;;;;;;;4803223;29;20066;-72
2021/12/28 04:40:54;;;;;;;63.47;28.50;;;;;;;;;;4789464;29;20047;-72
2021/12/28 04:43:22;;;;;;;63.13;29.23;;;;;;;;;;4800482;29;20130;-71
2021/12/28 04:45:49;;;;;;;49.85;25.13;;;;;;;;;;4802213;29;20142;-72
2021/12/28 04:48:16;;;;;;;49.72;24.98;;;;;;;;;;4803715;29;20058;-72
2021/12/28 04:50:45;;;;;;;51.47;25.90;;;;;;;;;;4801419;29;20130;-72
2021/12/28 04:53:13;;;;;;;45.85;23.88;;;;;;;;;;4785122;29;20499;-72
2021/12/28 04:55:45;;;;;;;52.00;25.75;;;;;;;;;;4802974;29;20053;-72
2021/12/28 04:58:13;;;;;;;52.40;27.20;;;;;;;;;;4801922;29;20070;-72
2021/12/28 05:00:41;;;;;;;53.53;27.30;;;;;;;;;;4798722;29;20041;-72
2021/12/28 05:03:09;;;;;;;44.15;21.98;;;;;;;;;;4800948;29;20053;-72
2021/12/28 05:05:37;;;;;;;34.70;20.63;;;;;;;;;;4802264;29;20043;-72
2021/12/28 05:08:05;;;;;;;52.85;26.13;;;;;;;;;;4804852;29;20051;-72
2021/12/28 05:10:33;;;;;;;40.78;22.60;;;;;;;;;;4800446;29;20089;-72
2021/12/28 05:13:00;;;;;;;50.30;25.92;;;;;;;;;;4813936;29;20137;-72
2021/12/28 05:15:28;;;;;;;49.35;25.27;;;;;;;;;;4806259;29;20101;-71
2021/12/28 05:17:55;;;;;;;50.67;26.48;;;;;;;;;;4808149;29;20078;-72
2021/12/28 05:20:23;;;;;;;45.78;23.42;;;;;;;;;;4801455;29;20093;-72
2021/12/28 05:22:50;;;;;;;56.13;28.83;;;;;;;;;;4802668;29;20539;-72
2021/12/28 05:25:17;;;;;;;51.78;23.88;;;;;;;;;;4802787;29;20082;-72
2021/12/28 05:27:45;;;;;;;46.45;25.10;;;;;;;;;;4785632;29;20099;-72
2021/12/28 05:30:12;;;;;;;56.42;28.17;;;;;;;;;;4800087;29;20107;-72
2021/12/28 05:32:40;;;;;;;47.22;24.10;;;;;;;;;;4800519;29;20050;-72
2021/12/28 05:35:08;;;;;;;59.60;27.90;;;;;;;;;;4799870;29;20174;-72
2021/12/28 05:37:35;;;;;;;60.67;29.00;;;;;;;;;;4800932;29;20145;-71
2021/12/28 05:40:04;;;;;;;56.88;27.50;;;;;;;;;;4799158;29;20054;-72
2021/12/28 05:42:31;;;;;;;51.53;25.33;;;;;;;;;;4799002;29;20047;-72
2021/12/28 05:44:58;;;;;;;52.97;26.95;;;;;;;;;;4803385;29;20138;-72
2021/12/28 05:47:26;;;;;;;51.85;27.55;;;;;;;;;;4804729;29;20098;-72
2021/12/28 05:49:53;;;;;;;41.35;23.15;;;;;;;;;;4804277;29;20419;-72
2021/12/28 05:52:20;;;;;;;53.17;26.13;;;;;;;;;;4799245;29;20073;-72
2021/12/28 05:54:48;;;;;;;44.00;22.48;;;;;;;;;;4801451;29;20043;-72
2021/12/28 05:57:15;;;;;;;47.53;23.85;;;;;;;;;;4799970;29;20054;-72
2021/12/28 05:59:43;;;;;;;57.78;27.33;;;;;;;;;;4801254;29;20126;-71
2021/12/28 06:02:10;;;;;;;52.03;26.08;;;;;;;;;;4798763;29;20043;-72
2021/12/28 06:04:39;;;;;;;46.28;24.73;;;;;;;;;;4806558;29;20050;-72
2021/12/28 06:07:06;;;;;;;45.58;24.52;;;;;;;;;;4798662;29;21546;-72
2021/12/28 06:09:34;;;;;;;46.63;24.58;;;;;;;;;;4799618;29;20058;-72
2021/12/28 06:12:01;;;;;;;38.33;21.38;;;;;;;;;;4798170;29;20141;-72
2021/12/28 06:14:28;;;;;;;39.30;21.52;;;;;;;;;;4800787;29;20054;-72
2021/12/28 06:16:56;;;;;;;39.53;20.52;;;;;;;;;;4800890;29;20149;-72
2021/12/28 06:19:23;;;;;;;39.20;23.08;;;;;;;;;;4801117;29;20061;-72
2021/12/28 06:21:50;;;;;;;44.33;22.88;;;;;;;;;;4798652;29;20049;-72
2021/12/28 06:24:18;;;;;;;41.85;21.95;;;;;;;;;;4801520;29;20640;-72
2021/12/28 06:26:45;;;;;;;46.05;23.95;;;;;;;;;;4803973;29;20141;-72
2021/12/28 06:29:15;;;;;;;46.28;25.15;;;;;;;;;;4801017;29;20055;-72
2021/12/28 06:31:43;;;;;;;48.53;25.23;;;;;;;;;;4810967;24;20059;-74
2021/12/28 06:34:10;;;;;;;47.42;25.25;;;;;;;;;;4800381;29;20133;-72
2021/12/28 06:36:38;;;;;;;53.22;32.92;;;;;;;;;;4802011;29;20127;-72
2021/12/28 06:39:05;;;;;;;44.83;25.15;;;;;;;;;;4802507;29;20082;-72
2021/12/28 06:41:33;;;;;;;47.88;24.58;;;;;;;;;;4797895;29;20528;-72
2021/12/28 06:44:01;;;;;;;65.07;37.75;;;;;;;;;;4807589;29;20064;-72
2021/12/28 06:46:29;;;;;;;62.85;33.33;;;;;;;;;;4802254;29;20438;-72
2021/12/28 06:48:56;;;;;;;55.10;29.02;;;;;;;;;;4802929;29;20138;-72
2021/12/28 06:51:24;;;;;;;47.17;25.52;;;;;;;;;;4803709;29;20076;-73
2021/12/28 06:53:52;;;;;;;45.38;24.52;;;;;;;;;;4802569;29;20504;-73
2021/12/28 06:56:20;;;;;;;71.38;37.75;;;;;;;;;;4804096;29;20112;-72
2021/12/28 06:58:47;;;;;;;64.90;34.30;;;;;;;;;;4802183;29;20046;-75
2021/12/28 07:01:15;;;;;;;58.72;30.08;;;;;;;;;;4803467;29;20043;-74
2021/12/28 07:03:42;;;;;;;61.08;30.25;;;;;;;;;;4804762;29;20047;-73
2021/12/28 07:06:10;;;;;;;60.70;30.13;;;;;;;;;;4804932;29;20659;-73
2021/12/28 07:08:38;;;;;;;57.58;27.23;;;;;;;;;;4803423;29;20130;-74
2021/12/28 07:11:05;;;;;;;50.75;26.02;;;;;;;;;;4811643;29;20143;-73
2021/12/28 07:13:32;;;;;;;49.08;26.83;;;;;;;;;;4804467;29;20330;-74
2021/12/28 07:16:00;;;;;;;55.70;26.35;;;;;;;;;;4801862;29;20063;-73
2021/12/28 07:18:28;;;;;;;47.90;25.05;;;;;;;;;;4786027;29;20043;-73
2021/12/28 07:20:55;;;;;;;59.35;30.02;;;;;;;;;;4785833;29;20975;-73
2021/12/28 07:23:22;;;;;;;59.05;27.90;;;;;;;;;;4800696;29;20047;-73
2021/12/28 07:25:53;;;;;;;58.72;28.38;;;;;;;;;;4787243;29;20103;-73
2021/12/28 07:28:21;;;;;;;60.95;29.38;;;;;;;;;;4804534;29;20058;-73
2021/12/28 07:30:48;;;;;;;45.20;24.67;;;;;;;;;;4787374;29;20504;-74
2021/12/28 07:33:16;;;;;;;48.35;24.20;;;;;;;;;;4782035;29;20303;-72
2021/12/28 07:35:43;;;;;;;51.40;26.60;;;;;;;;;;4770137;30;20104;-73
2021/12/28 07:38:11;;;;;;;66.10;31.70;;;;;;;;;;4782098;29;20192;-73
2021/12/28 07:40:38;;;;;;;56.13;28.30;;;;;;;;;;4772720;29;20051;-73
2021/12/28 07:43:06;;;;;;;57.92;29.45;;;;;;;;;;4787217;29;20444;-74
2021/12/28 07:45:33;;;;;;;40.55;22.35;;;;;;;;;;4768909;29;20055;-73
2021/12/28 07:48:01;;;;;;;40.72;23.30;;;;;;;;;;4782492;29;20059;-73
2021/12/28 07:50:28;;;;;;;41.70;25.00;;;;;;;;;;4791169;29;20087;-73
2021/12/28 07:52:56;;;;;;;46.03;25.30;;;;;;;;;;4799841;29;20078;-74
2021/12/28 07:55:23;;;;;;;40.17;22.35;;;;;;;;;;4800121;29;20570;-73
2021/12/28 07:57:51;;;;;;;56.33;31.45;;;;;;;;;;4800656;29;20051;-73
2021/12/28 08:00:19;;;;;;;44.90;24.13;;;;;;;;;;4800521;29;20154;-73
2021/12/28 08:02:47;;;;;;;49.53;25.48;;;;;;;;;;4801233;29;20050;-74
2021/12/28 08:05:15;;;;;;;43.90;21.33;;;;;;;;;;4809889;29;20054;-73
2021/12/28 08:07:42;;;;;;;46.42;23.42;;;;;;;;;;4823236;29;20050;-73
2021/12/28 08:10:11;;;;;;;47.00;25.45;;;;;;;;;;4834969;29;20298;-74
2021/12/28 08:12:38;;;;;;;42.47;24.75;;;;;;;;;;4804567;29;20140;-73
2021/12/28 08:15:06;;;;;;;48.60;25.52;;;;;;;;;;4787824;29;20058;-73
2021/12/28 08:17:33;;;;;;;51.03;26.63;;;;;;;;;;4819860;29;20411;-73
2021/12/28 08:20:01;;;;;;;52.40;28.70;;;;;;;;;;4818030;29;20144;-73
2021/12/28 08:22:28;;;;;;;52.45;27.85;;;;;;;;;;4819910;29;20424;-74
2021/12/28 08:24:56;;;;;;;40.13;23.27;;;;;;;;;;4818821;29;20084;-73
2021/12/28 08:27:27;;;;;;;41.60;24.40;;;;;;;;;;4818300;29;20054;-73
2021/12/28 08:29:54;;;;;;;50.15;26.02;;;;;;;;;;4818732;29;20571;-74
2021/12/28 08:32:22;;;;;;;53.72;28.15;;;;;;;;;;4815139;29;20050;-73
2021/12/28 08:34:50;;;;;;;48.95;27.17;;;;;;;;;;4830702;29;20565;-73
2021/12/28 08:37:17;;;;;;;53.58;27.77;;;;;;;;;;4799840;29;20123;-74
2021/12/28 08:39:45;;;;;;;45.80;26.42;;;;;;;;;;4800675;29;20084;-74
2021/12/28 08:42:13;;;;;;;45.30;25.63;;;;;;;;;;4801004;29;20043;-74
2021/12/28 08:44:40;;;;;;;39.55;24.83;;;;;;;;;;4818831;29;20684;-73
2021/12/28 08:47:07;;;;;;;55.08;32.50;;;;;;;;;;4813599;29;20054;-73
2021/12/28 08:49:35;;;;;;;54.20;30.65;;;;;;;;;;4806058;29;20059;-73
2021/12/28 08:52:03;;;;;;;57.50;31.77;;;;;;;;;;4788352;29;20074;-74
2021/12/28 08:54:30;;;;;;;54.83;32.47;;;;;;;;;;4806705;29;20137;-73
2021/12/28 08:56:57;;;;;;;50.10;28.17;;;;;;;;;;4800153;29;20079;-73
2021/12/28 08:59:25;;;;;;;46.17;27.73;;;;;;;;;;4802184;29;20043;-73
2021/12/28 09:01:55;;;;;;;50.53;27.75;;;;;;;;;;4797787;29;20446;-73
2021/12/28 09:04:22;;;;;;;47.92;26.38;;;;;;;;;;4801930;29;20052;-74
2021/12/28 09:06:50;;;;;;;48.72;28.23;;;;;;;;;;4799216;29;20078;-74
2021/12/28 09:09:18;;;;;;;48.78;26.45;;;;;;;;;;4803093;29;20042;-73
2021/12/28 09:11:46;;;;;;;42.75;24.48;;;;;;;;;;4800313;29;20061;-74
2021/12/28 09:14:13;;;;;;;43.95;26.60;;;;;;;;;;4817928;29;20484;-73
2021/12/28 09:16:41;;;;;;;49.20;26.10;;;;;;;;;;4805349;29;20159;-74
2021/12/28 09:19:08;;;;;;;39.42;24.38;;;;;;;;;;4815077;29;20127;-73
2021/12/28 09:21:39;;;;;;;40.63;24.77;;;;;;;;;;4805192;29;20134;-74
2021/12/28 09:24:06;;;;;;;40.08;23.50;;;;;;;;;;4800184;29;20157;-74
2021/12/28 09:26:54;;;;;;;43.28;23.70;;;;;;;;;;4798799;29;20046;-74
2021/12/28 09:29:25;;;;;;;40.13;23.83;;;;;;;;;;4797379;29;20098;-74
2021/12/28 09:31:53;;;;;;;45.03;24.33;;;;;;;;;;4802300;29;20062;-73
2021/12/28 09:34:21;;;;;;;37.72;22.98;;;;;;;;;;4800458;29;20119;-74
2021/12/28 09:36:57;;;;;;;38.63;22.80;;;;;;;;;;4803958;29;20054;-74
2021/12/28 09:39:26;;;;;;;34.25;20.83;;;;;;;;;;4799734;29;20070;-73
2021/12/28 09:41:55;;;;;;;43.40;23.98;;;;;;;;;;4802638;29;20070;-73
2021/12/28 09:44:23;;;;;;;43.70;24.55;;;;;;;;;;4800203;29;20515;-74
2021/12/28 09:46:50;;;;;;;39.75;22.70;;;;;;;;;;4801299;29;20050;-73
2021/12/28 09:49:18;;;;;;;36.10;22.00;;;;;;;;;;4799978;29;21036;-73
2021/12/28 09:51:46;;;;;;;41.90;22.73;;;;;;;;;;4802476;29;20050;-73
2021/12/28 09:54:14;;;;;;;40.92;23.73;;;;;;;;;;4799425;29;20389;-73
2021/12/28 09:56:41;;;;;;;40.35;22.95;;;;;;;;;;4801802;29;20058;-73
2021/12/28 09:59:09;;;;;;;36.40;21.20;;;;;;;;;;4799473;29;20047;-73
2021/12/28 10:01:37;;;;;;;37.90;23.17;;;;;;;;;;4798314;29;20043;-74
2021/12/28 10:04:04;;;;;;;40.60;23.52;;;;;;;;;;4802768;29;20057;-74
2021/12/28 10:06:32;;;;;;;37.75;22.08;;;;;;;;;;4803531;29;20099;-73
2021/12/28 10:09:07;;;;;;;41.47;24.55;;;;;;;;;;4800585;29;20085;-73
2021/12/28 10:11:39;;;;;;;36.70;20.08;;;;;;;;;;4798358;29;20043;-73
2021/12/28 10:14:21;;;;;;;41.17;22.63;;;;;;;;;;4804983;29;20094;-73
2021/12/28 10:16:48;;;;;;;43.80;22.70;;;;;;;;;;4806265;29;20047;-73
2021/12/28 10:19:28;;;;;;;41.45;22.63;;;;;;;;;;4806537;29;20074;-73
2021/12/28 10:21:55;;;;;;;39.45;22.60;;;;;;;;;;4801066;29;20077;-73
2021/12/28 10:24:34;;;;;;;41.58;22.63;;;;;;;;;;4803525;29;20103;-74
2021/12/28 10:27:15;;;;;;;42.17;22.35;;;;;;;;;;4803686;29;20130;-73
2021/12/28 10:29:43;;;;;;;43.95;24.45;;;;;;;;;;4800182;29;20201;-73
2021/12/28 10:32:21;;;;;;;45.78;25.25;;;;;;;;;;4791470;29;20074;-73
2021/12/28 10:34:49;;;;;;;44.08;24.70;;;;;;;;;;4783361;29;20512;-74
2021/12/28 10:37:18;;;;;;;44.08;24.30;;;;;;;;;;4795969;29;20524;-73
2021/12/28 10:39:46;;;;;;;48.88;26.65;;;;;;;;;;4799029;29;20533;-73
2021/12/28 10:42:40;;;;;;;45.60;25.10;;;;;;;;;;4795965;29;20066;-73
2021/12/28 10:45:18;;;;;;;43.40;24.80;;;;;;;;;;4797532;29;20493;-73
2021/12/28 10:47:46;;;;;;;43.22;23.92;;;;;;;;;;4793050;29;20142;-73
2021/12/28 10:50:23;;;;;;;57.67;29.40;;;;;;;;;;4804927;29;20051;-74
2021/12/28 10:52:59;;;;;;;49.85;26.92;;;;;;;;;;4805964;29;20072;-73
2021/12/28 10:55:28;;;;;;;44.20;25.48;;;;;;;;;;4800205;29;20079;-73
2021/12/28 10:57:56;;;;;;;36.80;21.48;;;;;;;;;;4797551;29;20042;-73
2021/12/28 11:00:42;;;;;;;42.95;23.13;;;;;;;;;;4806522;29;20084;-74
2021/12/28 11:03:16;;;;;;;44.53;23.35;;;;;;;;;;4806002;29;20067;-74
2021/12/28 11:05:45;;;;;;;60.58;30.77;;;;;;;;;;4804987;29;20062;-74
2021/12/28 11:08:13;;;;;;;80.82;41.92;;;;;;;;;;4799965;29;20051;-74
2021/12/28 11:10:48;;;;;;;55.55;29.13;;;;;;;;;;4814463;29;20054;-73
2021/12/28 11:13:18;;;;;;;67.50;35.17;;;;;;;;;;4784495;29;20093;-73
2021/12/28 11:15:46;;;;;;;49.30;26.88;;;;;;;;;;4800009;29;20039;-73
2021/12/28 11:18:21;;;;;;;40.70;21.65;;;;;;;;;;4799834;29;20046;-73
2021/12/28 11:20:50;;;;;;;53.13;26.67;;;;;;;;;;4799382;29;20031;-74
2021/12/28 11:23:21;;;;;;;44.20;24.25;;;;;;;;;;4801496;29;20090;-73
2021/12/28 11:26:01;;;;;;;50.42;25.77;;;;;;;;;;4807896;29;20047;-74
2021/12/28 11:28:30;;;;;;;53.03;24.30;;;;;;;;;;4804804;29;20054;-73
2021/12/28 11:31:01;;;;;;;46.10;22.88;;;;;;;;;;4807130;29;20127;-74
2021/12/28 11:33:41;;;;;;;49.33;26.27;;;;;;;;;;4808057;29;20508;-73
2021/12/28 11:36:09;;;;;;;50.63;25.58;;;;;;;;;;4811990;29;20307;-73
2021/12/28 11:38:37;;;;;;;36.55;22.80;;;;;;;;;;4801914;29;20053;-73
2021/12/28 11:41:05;;;;;;;44.42;23.20;;;;;;;;;;4802447;29;20443;-74
2021/12/28 11:43:33;;;;;;;46.20;25.13;;;;;;;;;;4802065;29;20046;-73
2021/12/28 11:46:04;;;;;;;43.80;22.37;;;;;;;;;;4801230;29;20527;-73
2021/12/28 11:48:32;;;;;;;38.67;22.88;;;;;;;;;;4805691;29;20078;-73
2021/12/28 11:50:59;;;;;;;37.53;21.33;;;;;;;;;;4787734;29;20138;-73
2021/12/28 11:53:27;;;;;;;40.78;21.63;;;;;;;;;;4804909;29;20074;-73
2021/12/28 11:55:58;;;;;;;42.00;22.45;;;;;;;;;;4809414;29;20051;-73
2021/12/28 11:58:44;;;;;;;44.83;23.60;;;;;;;;;;4802330;29;20070;-74
2021/12/28 12:01:32;;;;;;;48.15;22.30;;;;;;;;;;4801546;29;20129;-74
2021/12/28 12:03:59;;;;;;;41.92;21.05;;;;;;;;;;4805742;29;20446;-74
2021/12/28 12:06:46;;;;;;;38.38;20.80;;;;;;;;;;4805090;29;20050;-74
2021/12/28 12:09:13;;;;;;;41.25;21.40;;;;;;;;;;4796120;29;20137;-73
2021/12/28 12:12:00;;;;;;;42.95;22.65;;;;;;;;;;4780251;29;20059;-74
2021/12/28 12:14:48;;;;;;;42.47;21.95;;;;;;;;;;4794343;29;20597;-73
2021/12/28 12:17:39;;;;;;;35.72;20.08;;;;;;;;;;4781704;29;20189;-73
2021/12/28 12:20:08;;;;;;;37.15;18.77;;;;;;;;;;4781668;29;20577;-74
2021/12/28 12:22:38;;;;;;;37.78;19.10;;;;;;;;;;4795885;29;20058;-73
2021/12/28 12:25:07;;;;;;;44.38;22.52;;;;;;;;;;4796176;29;20158;-74
2021/12/28 12:27:40;;;;;;;39.47;20.20;;;;;;;;;;4775206;29;20050;-73
2021/12/28 12:30:28;;;;;;;39.03;21.00;;;;;;;;;;4778378;29;20066;-73
2021/12/28 12:33:09;;;;;;;43.15;21.95;;;;;;;;;;4813410;23;20431;-72
2021/12/28 12:35:43;;;;;;;47.38;24.20;;;;;;;;;;4814678;29;20379;-72
2021/12/28 12:38:10;;;;;;;44.58;22.77;;;;;;;;;;4817099;29;20561;-72
2021/12/28 12:40:51;;;;;;;38.22;21.15;;;;;;;;;;4832748;29;20292;-72
2021/12/28 12:43:18;;;;;;;38.28;20.48;;;;;;;;;;4819568;29;20479;-73
2021/12/28 12:45:55;;;;;;;44.05;22.20;;;;;;;;;;4820143;29;20058;-71
2021/12/28 12:48:38;;;;;;;38.60;20.30;;;;;;;;;;4822873;29;20162;-72
2021/12/28 12:51:20;;;;;;;40.40;21.35;;;;;;;;;;4816047;29;20507;-72
2021/12/28 12:53:54;;;;;;;77.00;35.05;;;;;;;;;;4822435;29;20046;-72
2021/12/28 12:56:24;;;;;;;234.35;84.95;;;;;;;;;;4821095;29;20049;-72
2021/12/28 12:58:52;;;;;;;71.78;32.08;;;;;;;;;;4826939;29;20093;-71
2021/12/28 13:01:26;;;;;;;47.85;24.85;;;;;;;;;;4821907;29;20599;-72
2021/12/28 13:03:55;;;;;;;60.88;29.98;;;;;;;;;;4825039;29;20510;-72
2021/12/28 13:06:40;;;;;;;50.60;25.85;;;;;;;;;;4822911;29;20081;-73
2021/12/28 13:09:10;;;;;;;48.47;23.27;;;;;;;;;;4825155;29;20079;-72
2021/12/28 13:11:38;;;;;;;48.08;23.67;;;;;;;;;;4823094;29;20056;-73
2021/12/28 13:14:05;;;;;;;39.42;21.80;;;;;;;;;;4826157;29;20112;-73
2021/12/28 13:16:33;;;;;;;43.88;22.25;;;;;;;;;;4819572;29;20061;-73
2021/12/28 13:19:10;;;;;;;41.90;21.98;;;;;;;;;;4819905;29;20053;-73
2021/12/28 13:21:38;;;;;;;38.30;19.77;;;;;;;;;;4817623;29;20399;-73
2021/12/28 13:24:13;;;;;;;51.42;23.17;;;;;;;;;;4827937;29;20507;-73
2021/12/28 13:26:43;;;;;;;42.15;22.15;;;;;;;;;;4817989;29;20046;-74
2021/12/28 13:29:11;;;;;;;38.28;20.65;;;;;;;;;;4819773;29;20064;-74
2021/12/28 13:31:39;;;;;;;52.97;24.77;;;;;;;;;;4817790;29;20078;-74
2021/12/28 13:34:06;;;;;;;45.70;22.80;;;;;;;;;;4821607;29;20051;-74
2021/12/28 13:36:33;;;;;;;66.07;28.02;;;;;;;;;;4819430;29;20043;-74
2021/12/28 13:39:05;;;;;;;40.88;21.77;;;;;;;;;;4821856;29;20049;-75
2021/12/28 13:41:32;;;;;;;47.65;24.35;;;;;;;;;;4818298;29;20157;-75
2021/12/28 13:44:04;;;;;;;50.90;24.40;;;;;;;;;;4819223;29;20081;-75
2021/12/28 13:46:31;;;;;;;36.47;20.55;;;;;;;;;;4819846;29;20138;-73
2021/12/28 13:48:59;;;;;;;45.97;25.42;;;;;;;;;;4818955;29;20072;-74
2021/12/28 13:51:29;;;;;;;34.85;18.38;;;;;;;;;;4816105;29;20046;-73
2021/12/28 13:53:59;;;;;;;42.72;24.33;;;;;;;;;;4816345;29;20915;-73
2021/12/28 13:56:33;;;;;;;41.97;22.88;;;;;;;;;;4819620;29;20034;-73
2021/12/28 13:59:01;;;;;;;60.58;28.17;;;;;;;;;;4818099;29;20067;-73
2021/12/28 14:01:30;;;;;;;52.10;24.30;;;;;;;;;;4818500;29;20054;-73
2021/12/28 14:04:02;;;;;;;47.78;24.05;;;;;;;;;;4818427;29;20046;-73
2021/12/28 14:06:30;;;;;;;42.03;21.95;;;;;;;;;;4819473;29;20077;-72
2021/12/28 14:09:01;;;;;;;44.13;22.10;;;;;;;;;;4817513;29;20051;-73
2021/12/28 14:11:33;;;;;;;47.87;24.13;;;;;;;;;;4814875;29;20133;-72
2021/12/28 14:14:00;;;;;;;43.00;23.40;;;;;;;;;;4817540;29;20545;-72
2021/12/28 14:16:28;;;;;;;56.97;25.77;;;;;;;;;;4817685;29;20499;-71
2021/12/28 14:18:55;;;;;;;44.00;21.60;;;;;;;;;;4818499;29;20046;-73
2021/12/28 14:21:27;;;;;;;52.80;25.00;;;;;;;;;;4818985;29;20065;-71
2021/12/28 14:23:58;;;;;;;54.75;26.50;;;;;;;;;;4818754;29;20448;-70
2021/12/28 14:26:27;;;;;;;66.10;28.17;;;;;;;;;;4814863;29;20132;-71
2021/12/28 14:29:06;;;;;;;51.53;25.05;;;;;;;;;;4816397;29;20606;-71
2021/12/28 14:31:36;;;;;;;67.13;26.52;;;;;;;;;;4817230;29;20133;-71